Main page
METAR-TAF:

METAR-TAF

Airports :

San Sebastián Airport

San Sebastián, Spain

latitude: 43-21N, longitude: 001-48W, elevation: 5 m

Current weather observation

The report was made 42 minutes ago, at 15:00 UTC
Wind 6 kt from the North, varying between Northwest and Northeast
Temperature 16°C
Humidity 72%
Pressure 1016 hPa
Visibility 10 km or more
Scattered clouds at a height of 2600 ft

METAR: LESO 201500Z 36006KT 320V050 9999 SCT026 16/11 Q1016

Time: 17:42 (15:42 UTC)

Forecast

The report was made 4 hours and 42 minutes ago, at 11:00 UTC
Forecast valid from 20 at 12 UTC to 21 at 12 UTC
Wind 5 kt from variable directions
Visibility 10 km or more
Scattered clouds at a height of 2000 ft
Broken clouds at a height of 3500 ft
Probability 30% :
Temporary
from 20 at 22 UTC to 21 at 06 UTC
Visibility: 3000 m
Broken clouds at a height of 1400 ft
mist

TAF: LESO 201100Z 2012/2112 VRB05KT 9999 SCT020 BKN035 TX16/2112Z TN10/2100Z PROB30 TEMPO 2022/2106 3000 BR BKN014

Weather observations and forecasts of more than 4000 airports (METAR and TAF reports).

The available stations are represented by yellow and red dots on the map.

Hover mouse over dot to see the name of the station.

Then click to see weather observations and forecasts.

To change the map : click on the green buttons with a black cross to zoom in, on the green button with a dash to zoom out, or on the green arrows for adjacent maps.


METAR-TAF: